Dorothy J — WDC3893 — position and weather

sailwx.info

Track history (hours):
 
Tides and Currents Weather Stations Pressure Air Temp Water Temp Dewpoint Dewpoint Depression Visibility Wind Speed Wind Dir Waves Ship Positions

Dorothy J

Owner: HENRY MARINE SERVICE INC, STATEN ISLAND, NY. More information available from US FCC via Universal Licensing System and Coast Guard Vessel Documentation Center.

Last reported at 2018-Jul-20 18:38 UTC. Time now 2018-Jul-23 15:17 UTC.
Position N 40°38' W 074°12'.

Length 20 m; draft 3 m.

Type: Tug. MMSI: 367015890.

Date/timePositionNaut miles runAvg speedWind from/ knotsBaromVisibWave heightAir tempDewpointWater temp
2018-Jul-20 18:38N 40°38' W 074°12'1 7.4
2018-Jul-20 18:30N 40°39' W 074°11'4 8.1
2018-Jul-20 18:00N 40°39' W 074°06'2 3.9
2018-Jul-20 17:30N 40°41' W 074°05'1 2.6
2018-Jul-20 17:00N 40°41' W 074°03'3 6.2
2018-Jul-20 16:30N 40°43' W 074°01'0 0.7
2018-Jul-20 16:00N 40°44' W 074°01'2 4.9
2018-Jul-20 15:30N 40°42' W 074°02'3 6.9
2018-Jul-20 15:00N 40°39' W 074°05'  
2018-Jul-16 12:19N 40°31' W 074°15'0 0.0
2018-Jul-16 11:59N 40°31' W 074°15'0 0.0
2018-Jul-14 09:56N 40°31' W 074°15'0 0.0
2018-Jul-14 09:30N 40°31' W 074°15'0 0.0
2018-Jul-14 09:00N 40°31' W 074°15'0 0.0
2018-Jul-14 08:30N 40°31' W 074°15'0 0.0
2018-Jul-14 08:00N 40°31' W 074°15'0 0.0
2018-Jul-14 07:30N 40°31' W 074°15'0 0.0
2018-Jul-14 07:00N 40°31' W 074°15'0 0.0
2018-Jul-14 06:30N 40°31' W 074°15'0 0.0
2018-Jul-14 06:00N 40°31' W 074°15'0 0.0
2018-Jul-14 05:30N 40°31' W 074°15'0 0.0
2018-Jul-14 04:37N 40°31' W 074°15'0 0.0
2018-Jul-13 12:33N 40°31' W 074°15'0 0.0
2018-Jul-13 12:31N 40°31' W 074°15'0 0.0
2018-Jul-13 12:00N 40°31' W 074°15'0 0.0
2018-Jul-13 11:31N 40°31' W 074°15'0 0.0
2018-Jul-13 11:00N 40°31' W 074°15'0 0.0
2018-Jul-13 10:30N 40°31' W 074°15'0 0.0
2018-Jul-13 10:00N 40°31' W 074°15'0 0.0
2018-Jul-13 09:30N 40°31' W 074°15'0 0.0
2018-Jul-13 09:00N 40°31' W 074°15'0 0.0
2018-Jul-13 08:29N 40°31' W 074°15'0 0.0
2018-Jul-13 08:00N 40°31' W 074°15'0 0.0
2018-Jul-13 07:30N 40°31' W 074°15'0 0.0
2018-Jul-13 07:00N 40°31' W 074°15'0 0.0
2018-Jul-13 06:30N 40°31' W 074°15'0 0.0
2018-Jul-13 06:00N 40°31' W 074°15'0 0.0
2018-Jul-13 05:30N 40°31' W 074°15'0 0.0
2018-Jul-13 04:50N 40°31' W 074°15'0 0.0
2018-Jul-13 04:30N 40°31' W 074°15'0 0.0
2018-Jul-13 04:00N 40°31' W 074°15'0 0.0
2018-Jul-13 03:30N 40°31' W 074°15'0 0.0
2018-Jul-13 03:01N 40°31' W 074°15'0 0.0
2018-Jul-13 02:31N 40°31' W 074°15'7 0.3
2018-Jul-11 22:59N 40°38' W 074°12'4 7.2
2018-Jul-11 22:29N 40°39' W 074°07'4 7.7
2018-Jul-11 22:00N 40°40' W 074°03'3 6.2
2018-Jul-11 21:30N 40°42' W 073°60'1 2.1
2018-Jul-11 21:00N 40°42' W 073°58'0 0.0
2018-Jul-11 20:30N 40°42' W 073°58'0 0.0
2018-Jul-11 20:00N 40°42' W 073°58'0 0.0
2018-Jul-11 19:30N 40°42' W 073°58'1 2.8
2018-Jul-11 19:00N 40°42' W 074°00'4 7.0
2018-Jul-11 18:30N 40°40' W 074°04'3 5.7
2018-Jul-11 18:00N 40°38' W 074°07'0 0.0
2018-Jul-11 17:30N 40°38' W 074°07'0 0.0
2018-Jul-11 17:00N 40°38' W 074°07'0 0.0
2018-Jul-11 16:30N 40°38' W 074°07'0 0.0
2018-Jul-11 16:00N 40°38' W 074°07'0 0.0
2018-Jul-11 15:30N 40°38' W 074°07'2 4.4
2018-Jul-11 15:00N 40°39' W 074°10'1 0.3
2018-Jul-11 10:20N 40°38' W 074°12'2 7.5
2018-Jul-11 10:00N 40°39' W 074°09'2 4.0
2018-Jul-11 09:30N 40°39' W 074°06'1 2.1
2018-Jul-11 09:00N 40°38' W 074°07'0 0.0
2018-Jul-11 08:30N 40°38' W 074°07'0 0.0
2018-Jul-11 08:00N 40°38' W 074°07'0 0.0
2018-Jul-11 07:30N 40°38' W 074°07'0 0.0
2018-Jul-11 07:00N 40°38' W 074°07'0 0.0
2018-Jul-11 06:30N 40°38' W 074°07'0 0.0
2018-Jul-11 06:00N 40°38' W 074°07'0 0.0
2018-Jul-11 05:30N 40°38' W 074°07'0 0.0
2018-Jul-11 05:00N 40°38' W 074°07'0 0.0
2018-Jul-11 04:30N 40°38' W 074°07'0 0.0
2018-Jul-11 03:59N 40°38' W 074°07'0 0.0
2018-Jul-11 03:30N 40°38' W 074°07'0 0.0
2018-Jul-11 03:00N 40°38' W 074°07'0 0.0
2018-Jul-11 02:30N 40°38' W 074°07'0 0.0
2018-Jul-11 02:00N 40°38' W 074°07'0 0.0
2018-Jul-11 01:30N 40°38' W 074°07'0 0.0
2018-Jul-11 01:00N 40°38' W 074°07'0 0.0
2018-Jul-11 00:30N 40°38' W 074°07'0 0.0
2018-Jul-11 00:00N 40°38' W 074°07'0 0.0
2018-Jul-10 23:30N 40°38' W 074°07'0 0.0
2018-Jul-10 22:59N 40°38' W 074°07'0 0.0
2018-Jul-10 22:29N 40°38' W 074°07'0 0.0
2018-Jul-10 22:00N 40°38' W 074°07'0 0.0
2018-Jul-10 21:30N 40°38' W 074°07'0 0.0
2018-Jul-10 21:00N 40°38' W 074°07'0 0.0
2018-Jul-10 20:30N 40°38' W 074°07'0 0.0
2018-Jul-10 20:00N 40°38' W 074°07'0 0.0
2018-Jul-10 19:30N 40°38' W 074°07'0 0.0
2018-Jul-10 19:00N 40°38' W 074°07'  
Track history (hours):
 
Tides and Currents Weather Stations Pressure Air Temp Water Temp Dewpoint Dewpoint Depression Visibility Wind Speed Wind Dir Waves Ship Positions

Dorothy J

Owner: HENRY MARINE SERVICE INC, STATEN ISLAND, NY. More information available from US FCC via Universal Licensing System and Coast Guard Vessel Documentation Center.

Last reported at 2018-Jul-20 18:38 UTC. Time now 2018-Jul-23 15:17 UTC.
Position N 40°38' W 074°12'.

Length 20 m; draft 3 m.

Type: Tug. MMSI: 367015890.

Date/timePositionNaut miles runAvg speedWind from/ knotsBaromVisibWave heightAir tempDewpointWater temp
2018-Jul-20 18:38N 40°38' W 074°12'1 7.4
2018-Jul-20 18:30N 40°39' W 074°11'4 8.1
2018-Jul-20 18:00N 40°39' W 074°06'2 3.9
2018-Jul-20 17:30N 40°41' W 074°05'1 2.6
2018-Jul-20 17:00N 40°41' W 074°03'3 6.2
2018-Jul-20 16:30N 40°43' W 074°01'0 0.7
2018-Jul-20 16:00N 40°44' W 074°01'2 4.9
2018-Jul-20 15:30N 40°42' W 074°02'3 6.9
2018-Jul-20 15:00N 40°39' W 074°05'  
2018-Jul-16 12:19N 40°31' W 074°15'0 0.0
2018-Jul-16 11:59N 40°31' W 074°15'0 0.0
2018-Jul-14 09:56N 40°31' W 074°15'0 0.0
2018-Jul-14 09:30N 40°31' W 074°15'0 0.0
2018-Jul-14 09:00N 40°31' W 074°15'0 0.0
2018-Jul-14 08:30N 40°31' W 074°15'0 0.0
2018-Jul-14 08:00N 40°31' W 074°15'0 0.0
2018-Jul-14 07:30N 40°31' W 074°15'0 0.0
2018-Jul-14 07:00N 40°31' W 074°15'0 0.0
2018-Jul-14 06:30N 40°31' W 074°15'0 0.0
2018-Jul-14 06:00N 40°31' W 074°15'0 0.0
2018-Jul-14 05:30N 40°31' W 074°15'0 0.0
2018-Jul-14 04:37N 40°31' W 074°15'0 0.0
2018-Jul-13 12:33N 40°31' W 074°15'0 0.0
2018-Jul-13 12:31N 40°31' W 074°15'0 0.0
2018-Jul-13 12:00N 40°31' W 074°15'0 0.0
2018-Jul-13 11:31N 40°31' W 074°15'0 0.0
2018-Jul-13 11:00N 40°31' W 074°15'0 0.0
2018-Jul-13 10:30N 40°31' W 074°15'0 0.0
2018-Jul-13 10:00N 40°31' W 074°15'0 0.0
2018-Jul-13 09:30N 40°31' W 074°15'0 0.0
2018-Jul-13 09:00N 40°31' W 074°15'0 0.0
2018-Jul-13 08:29N 40°31' W 074°15'0 0.0
2018-Jul-13 08:00N 40°31' W 074°15'0 0.0
2018-Jul-13 07:30N 40°31' W 074°15'0 0.0
2018-Jul-13 07:00N 40°31' W 074°15'0 0.0
2018-Jul-13 06:30N 40°31' W 074°15'0 0.0
2018-Jul-13 06:00N 40°31' W 074°15'0 0.0
2018-Jul-13 05:30N 40°31' W 074°15'0 0.0
2018-Jul-13 04:50N 40°31' W 074°15'0 0.0
2018-Jul-13 04:30N 40°31' W 074°15'0 0.0
2018-Jul-13 04:00N 40°31' W 074°15'0 0.0
2018-Jul-13 03:30N 40°31' W 074°15'0 0.0
2018-Jul-13 03:01N 40°31' W 074°15'0 0.0
2018-Jul-13 02:31N 40°31' W 074°15'7 0.3
2018-Jul-11 22:59N 40°38' W 074°12'4 7.2
2018-Jul-11 22:29N 40°39' W 074°07'4 7.7
2018-Jul-11 22:00N 40°40' W 074°03'3 6.2
2018-Jul-11 21:30N 40°42' W 073°60'1 2.1
2018-Jul-11 21:00N 40°42' W 073°58'0 0.0
2018-Jul-11 20:30N 40°42' W 073°58'0 0.0
2018-Jul-11 20:00N 40°42' W 073°58'0 0.0
2018-Jul-11 19:30N 40°42' W 073°58'1 2.8
2018-Jul-11 19:00N 40°42' W 074°00'4 7.0
2018-Jul-11 18:30N 40°40' W 074°04'3 5.7
2018-Jul-11 18:00N 40°38' W 074°07'0 0.0
2018-Jul-11 17:30N 40°38' W 074°07'0 0.0
2018-Jul-11 17:00N 40°38' W 074°07'0 0.0
2018-Jul-11 16:30N 40°38' W 074°07'0 0.0
2018-Jul-11 16:00N 40°38' W 074°07'0 0.0
2018-Jul-11 15:30N 40°38' W 074°07'2 4.4
2018-Jul-11 15:00N 40°39' W 074°10'1 0.3
2018-Jul-11 10:20N 40°38' W 074°12'2 7.5
2018-Jul-11 10:00N 40°39' W 074°09'2 4.0
2018-Jul-11 09:30N 40°39' W 074°06'1 2.1
2018-Jul-11 09:00N 40°38' W 074°07'0 0.0
2018-Jul-11 08:30N 40°38' W 074°07'0 0.0
2018-Jul-11 08:00N 40°38' W 074°07'0 0.0
2018-Jul-11 07:30N 40°38' W 074°07'0 0.0
2018-Jul-11 07:00N 40°38' W 074°07'0 0.0
2018-Jul-11 06:30N 40°38' W 074°07'0 0.0
2018-Jul-11 06:00N 40°38' W 074°07'0 0.0
2018-Jul-11 05:30N 40°38' W 074°07'0 0.0
2018-Jul-11 05:00N 40°38' W 074°07'0 0.0
2018-Jul-11 04:30N 40°38' W 074°07'0 0.0
2018-Jul-11 03:59N 40°38' W 074°07'0 0.0
2018-Jul-11 03:30N 40°38' W 074°07'0 0.0
2018-Jul-11 03:00N 40°38' W 074°07'0 0.0
2018-Jul-11 02:30N 40°38' W 074°07'0 0.0
2018-Jul-11 02:00N 40°38' W 074°07'0 0.0
2018-Jul-11 01:30N 40°38' W 074°07'0 0.0
2018-Jul-11 01:00N 40°38' W 074°07'0 0.0
2018-Jul-11 00:30N 40°38' W 074°07'0 0.0
2018-Jul-11 00:00N 40°38' W 074°07'0 0.0
2018-Jul-10 23:30N 40°38' W 074°07'0 0.0
2018-Jul-10 22:59N 40°38' W 074°07'0 0.0
2018-Jul-10 22:29N 40°38' W 074°07'0 0.0
2018-Jul-10 22:00N 40°38' W 074°07'0 0.0
2018-Jul-10 21:30N 40°38' W 074°07'0 0.0
2018-Jul-10 21:00N 40°38' W 074°07'0 0.0
2018-Jul-10 20:30N 40°38' W 074°07'0 0.0
2018-Jul-10 20:00N 40°38' W 074°07'0 0.0
2018-Jul-10 19:30N 40°38' W 074°07'0 0.0
2018-Jul-10 19:00N 40°38' W 074°07'  

Dump ship's entire track history